LTCNLCLK

Guest
Details From LTCN - KAHRAMANMARAS
To LCLK - Larnaca
Flight Number -
Tags generated
Created
Modified
Stats Distance 243 nm / 451 km
Max Altitude 32,400 ft / 9,876 m
Waypoints 5
Social Downloads 0
Likes 0
Share VATSIM

Download

Looking for another format? Having issues loading an existing format? Contact us
Advertisement - Login to hide

Notes

Basic altitude profile: - Ascent Rate: 2500ft/min - Ascent Speed: 250kts - Cruise Altitude: 35000ft - Cruise Speed: 420kts - Descent Rate: 1500ft/min - Descent Speed: 250kts Options: - Use NATs: yes - Use PACOTS: yes - Use low airways: yes - Use high airways: yes

Route

LTCN ADA UW84 TARSU VESAR LCLK

ID Type Via Altitude Latitude Longitude Leg Dist Tot Dist Heading (true) Name
O LTCN APT - 0 ft / 0 m 37.53897˚ 36.95341˚ - 0 nm - KAHRAMANMARAS
ADA VOR - 32,400 ft / 9,876 m 36.94056˚ 35.21028˚ 90 nm 90 nm 247° / 246° ADANA VOR-DME
TARSU FIX UW84 (AWY-HI) 28,500 ft / 8,687 m 36.62200˚ 34.51900˚ 38 nm 129 nm 240° / 240° -
VESAR FIX - 14,000 ft / 4,267 m 35.91556˚ 34.01611˚ 48 nm 178 nm 210° / 210° -
O LCLK APT - 0 ft / 0 m 34.87512˚ 33.62483˚ 65 nm 243 nm 197° / 197° Larnaca

Altitude Profile

Advertisement - Login to hide

Weather


0- 5 10 15 20 25 30 35+ Temperature / ° C

Clouds and Precipitation
Forecast for 2017-12-12 12:00 UTC. Updated an hour ago

Ground ~20,000 ft ~40,000 ft Winds

LTCN

Details ICAO LTCN (KCM)
Name KAHRAMANMARAS
Region Turkey
Timezone Europe/Istanbul (UTC+3.0)
Stats Elevation 1,723 ft / 525 m (AMSL)
Location 37.538967° 36.953411°
Runways 1
Magnetic Variation 5.504° E

METAR

LTCN 120750Z 29005KT 260V320 6000 2900W BR NSC 06/03 Q1028 NOSIG

Decode

TAF

Not found

Departure Runways

ID Width Length Bearing (true) Bearing (mag) Surface Threshold Offset Overrun Length
08 98 ft / 30 m 7,533 ft / 2,296 m 75.46° 69.96° Asphalt 0 ft / 0 m 196 ft / 60 m
26 98 ft / 30 m 7,533 ft / 2,296 m 255.48° 249.98° Asphalt 984 ft / 300 m 196 ft / 60 m

LCLK

Details ICAO LCLK (LCA)
Name Larnaca
Region Cyprus
Timezone Asia/Nicosia (UTC+2.0)
Stats Elevation 8 ft / 2 m (AMSL)
Location 34.875115° 33.624832°
Runways 1
Magnetic Variation 4.990° E

METAR

LCLK 120800Z 02011KT CAVOK 19/12 Q1023 NOSIG

Decode

TAF

TAF LCLK 120530Z 1206/1306 36010KT CAVOK BECMG 1206/1209 06012KT BECMG 1215/1218 34008KT

Decode

Destination Runways

ID Width Length Bearing (true) Bearing (mag) Surface Threshold Offset Overrun Length
04 148 ft / 45 m 9,771 ft / 2,978 m 45.15° 40.16° Asphalt 0 ft / 0 m 210 ft / 64 m
22 148 ft / 45 m 9,771 ft / 2,978 m 225.17° 220.18° Asphalt 575 ft / 175 m 0 ft / 0 m

Approach Navaids

Runway Type Ident Frequency Range Bearing (true) Bearing (mag) Slope Elevation
22 Localiser ILC 110.30 MHz 18 nm / 33 km 225.17° 220.18° - 8 ft / 2 m (AMSL)
22 Glidescope ILC 110.30 MHz 10 nm / 19 km 225.16° 220.17° 2.75° 24 ft / 7 m (AMSL)
22 DME ILC 110.30 MHz 18 nm / 33 km - - - 20 ft / 6 m (AMSL)